Carroll, Ohio
Current Conditions -  °F | °C
As of 8:53 AM on Friday 31 Oct 2014 (Local Time) from KLHQ Reporting Station
Overcast Overcast  
Wind Chill: 39°   Ceiling: 4800
Heat Index: 43°   Visibility: 7mi
Dew Point: 38°   Wind: 6mph
Humidity: 82%   Direction: 190°S
Pressure: 29.97"   Gusts: NA
Location:  39.8°N, 82.7°W
Report Text: KLHQ 311253Z AUTO 19005KT 7SM FEW035 BKN048 OVC055 06/03 A2997 RMK AO2 RAB1155E37 SLP152 P0001 T00610033
Loading
Personal Weather Stations






























Interactive Weather Map
Tropical Storm Tracking
New forecast layout! Learn more

10-Day Weather Forecast

Advertisements
Track Severe Weather on mobile